Time,TemperatureF,DewpointF,PressureIn,WindDirection,WindDirectionDegrees,WindSpeedMPH,WindSpeedGustMPH,Humidity,HourlyPrecipIn,Conditions,Clouds,dailyrainin,SoftwareType,DateUTC
2013-09-04 00:01:00,55.8,29.2,17.72,WNW,303,0.0,0.0,36,0.00,,---,0.00,VWS V14.01,2013-09-04 04:01:00,
2013-09-04 00:06:00,55.4,28.9,17.72,WNW,303,0.0,0.0,36,0.00,,---,0.00,VWS V14.01,2013-09-04 04:06:00,
2013-09-04 00:11:00,55.2,28.8,17.72,WNW,303,0.0,0.0,36,0.00,,---,0.00,VWS V14.01,2013-09-04 04:11:00,
2013-09-04 00:16:00,55.0,28.6,17.72,WNW,303,0.0,0.0,36,0.00,,---,0.00,VWS V14.01,2013-09-04 04:16:00,
2013-09-04 00:21:00,55.0,28.6,17.72,WNW,303,0.0,0.0,36,0.00,,---,0.00,VWS V14.01,2013-09-04 04:21:00,
2013-09-04 00:26:00,54.9,28.4,17.72,WNW,303,0.0,0.0,36,0.00,,---,0.00,VWS V14.01,2013-09-04 04:26:00,
2013-09-04 00:31:00,54.9,28.4,17.72,WNW,303,0.0,0.0,36,0.00,,---,0.00,VWS V14.01,2013-09-04 04:31:00,
2013-09-04 00:36:00,54.7,28.3,17.72,WNW,303,0.0,0.0,36,0.00,,---,0.00,VWS V14.01,2013-09-04 04:36:00,
2013-09-04 00:41:00,54.7,28.3,17.72,WNW,303,0.0,0.0,36,0.00,,---,0.00,VWS V14.01,2013-09-04 04:41:00,
2013-09-04 00:46:00,54.5,28.1,17.72,WNW,303,0.0,0.0,36,0.00,,---,0.00,VWS V14.01,2013-09-04 04:46:00,
2013-09-04 00:51:00,54.3,28.0,17.72,WNW,303,0.0,0.0,36,0.00,,---,0.00,VWS V14.01,2013-09-04 04:51:00,
2013-09-04 00:56:00,54.1,27.8,17.72,WNW,303,0.0,0.0,36,0.00,,---,0.00,VWS V14.01,2013-09-04 04:56:00,
2013-09-04 01:01:00,54.1,27.8,17.72,WNW,303,0.0,0.0,36,0.00,,---,0.00,VWS V14.01,2013-09-04 05:01:00,
2013-09-04 01:06:00,54.3,28.0,17.72,WNW,303,0.0,0.0,36,0.00,,---,0.00,VWS V14.01,2013-09-04 05:06:00,
2013-09-04 01:11:00,54.3,28.0,17.72,WNW,303,0.0,0.0,36,0.00,,---,0.00,VWS V14.01,2013-09-04 05:11:00,
2013-09-04 01:16:00,54.5,28.1,17.72,WNW,303,0.0,0.0,36,0.00,,---,0.00,VWS V14.01,2013-09-04 05:16:00,
2013-09-04 01:21:00,54.5,28.1,17.72,WNW,303,0.0,0.0,36,0.00,,---,0.00,VWS V14.01,2013-09-04 05:21:00,
2013-09-04 01:26:00,54.5,28.1,17.72,WNW,303,0.0,0.0,36,0.00,,---,0.00,VWS V14.01,2013-09-04 05:26:00,
2013-09-04 01:31:00,54.3,28.0,17.72,WNW,303,0.0,0.0,36,0.00,,---,0.00,VWS V14.01,2013-09-04 05:31:00,
2013-09-04 01:36:00,54.1,27.8,17.72,WNW,303,0.0,0.0,36,0.00,,---,0.00,VWS V14.01,2013-09-04 05:36:00,
2013-09-04 01:41:00,54.0,27.6,17.72,WNW,303,0.0,0.0,36,0.00,,---,0.00,VWS V14.01,2013-09-04 05:41:00,
2013-09-04 01:46:00,53.8,27.5,17.72,WNW,303,0.0,0.0,36,0.00,,---,0.00,VWS V14.01,2013-09-04 05:46:00,
2013-09-04 01:51:00,53.8,27.5,17.72,WNW,303,0.0,0.0,36,0.00,,---,0.00,VWS V14.01,2013-09-04 05:51:00,
2013-09-04 01:56:00,53.6,27.3,17.72,WNW,303,0.0,0.0,36,0.00,,---,0.00,VWS V14.01,2013-09-04 05:56:00,
2013-09-04 02:01:00,53.6,27.3,17.72,WNW,303,0.0,0.0,36,0.00,,---,0.00,VWS V14.01,2013-09-04 06:01:00,
2013-09-04 02:06:00,53.4,27.8,17.72,WNW,303,0.0,0.0,37,0.00,,---,0.00,VWS V14.01,2013-09-04 06:06:00,
2013-09-04 02:11:00,53.4,27.8,17.72,WNW,303,0.0,0.0,37,0.00,,---,0.00,VWS V14.01,2013-09-04 06:11:00,
2013-09-04 02:16:00,53.2,27.7,17.72,WNW,303,0.0,0.0,37,0.00,,---,0.00,VWS V14.01,2013-09-04 06:16:00,
2013-09-04 02:21:00,53.1,27.5,17.72,WNW,303,0.0,0.0,37,0.00,,---,0.00,VWS V14.01,2013-09-04 06:21:00,
2013-09-04 02:26:00,53.1,27.5,17.72,WNW,303,0.0,0.0,37,0.00,,---,0.00,VWS V14.01,2013-09-04 06:26:00,
2013-09-04 02:31:00,52.9,27.3,17.72,WNW,303,0.0,0.0,37,0.00,,---,0.00,VWS V14.01,2013-09-04 06:31:00,
2013-09-04 02:36:00,52.9,27.3,17.72,WNW,303,0.0,0.0,37,0.00,,---,0.00,VWS V14.01,2013-09-04 06:36:00,
2013-09-04 02:41:00,52.7,27.2,17.72,WNW,303,0.0,0.0,37,0.00,,---,0.00,VWS V14.01,2013-09-04 06:41:00,
2013-09-04 02:46:00,52.7,27.2,17.72,WNW,303,0.0,0.0,37,0.00,,---,0.00,VWS V14.01,2013-09-04 06:46:00,
2013-09-04 02:51:00,52.5,27.0,17.72,WNW,303,0.0,0.0,37,0.00,,---,0.00,VWS V14.01,2013-09-04 06:51:00,
2013-09-04 02:56:00,52.3,26.9,17.72,WNW,303,0.0,0.0,37,0.00,,---,0.00,VWS V14.01,2013-09-04 06:56:00,
2013-09-04 03:01:00,52.3,26.9,17.72,WNW,303,0.0,0.0,37,0.00,,---,0.00,VWS V14.01,2013-09-04 07:01:00,
2013-09-04 03:06:00,52.2,26.7,17.72,WNW,303,0.0,0.0,37,0.00,,---,0.00,VWS V14.01,2013-09-04 07:06:00,
2013-09-04 03:11:00,52.2,26.7,17.72,WNW,303,0.0,0.0,37,0.00,,---,0.00,VWS V14.01,2013-09-04 07:11:00,
2013-09-04 03:16:00,52.0,26.5,17.72,WNW,303,0.0,0.0,37,0.00,,---,0.00,VWS V14.01,2013-09-04 07:16:00,
2013-09-04 03:21:00,51.8,26.4,17.72,WNW,303,0.0,0.0,37,0.00,,---,0.00,VWS V14.01,2013-09-04 07:21:00,
2013-09-04 03:26:00,51.6,26.2,17.72,WNW,303,0.0,0.0,37,0.00,,---,0.00,VWS V14.01,2013-09-04 07:26:00,
2013-09-04 03:31:00,51.4,26.0,17.72,WNW,303,0.0,0.0,37,0.00,,---,0.00,VWS V14.01,2013-09-04 07:31:00,
2013-09-04 03:36:00,51.3,25.9,17.72,WNW,303,0.0,0.0,37,0.00,,---,0.00,VWS V14.01,2013-09-04 07:36:00,
2013-09-04 03:41:00,51.3,25.9,17.72,WNW,303,0.0,0.0,37,0.00,,---,0.00,VWS V14.01,2013-09-04 07:41:00,
2013-09-04 03:46:00,51.3,25.9,17.72,WNW,303,0.0,0.0,37,0.00,,---,0.00,VWS V14.01,2013-09-04 07:46:00,
2013-09-04 03:51:00,51.1,25.7,17.72,WNW,303,0.0,0.0,37,0.00,,---,0.00,VWS V14.01,2013-09-04 07:51:00,
2013-09-04 03:56:00,51.1,25.7,17.72,WNW,303,0.0,0.0,37,0.00,,---,0.00,VWS V14.01,2013-09-04 07:56:00,
2013-09-04 04:01:00,50.9,25.6,17.72,WNW,303,0.0,0.0,37,0.00,,---,0.00,VWS V14.01,2013-09-04 08:01:00,
2013-09-04 04:06:00,50.4,25.1,17.72,WNW,303,0.0,0.0,37,0.00,,---,0.00,VWS V14.01,2013-09-04 08:06:00,
2013-09-04 04:11:00,50.4,25.1,17.72,WNW,303,0.0,0.0,37,0.00,,---,0.00,VWS V14.01,2013-09-04 08:11:00,
2013-09-04 04:16:00,50.4,25.1,17.72,WNW,303,0.0,0.0,37,0.00,,---,0.00,VWS V14.01,2013-09-04 08:16:00,
2013-09-04 04:21:00,50.4,25.1,17.72,WNW,303,0.0,0.0,37,0.00,,---,0.00,VWS V14.01,2013-09-04 08:21:00,
2013-09-04 04:26:00,50.2,24.9,17.72,WNW,303,0.0,0.0,37,0.00,,---,0.00,VWS V14.01,2013-09-04 08:26:00,
2013-09-04 04:31:00,50.0,24.8,17.72,WNW,303,0.0,0.0,37,0.00,,---,0.00,VWS V14.01,2013-09-04 08:31:00,
2013-09-04 04:36:00,50.2,24.9,17.72,WNW,303,0.0,0.0,37,0.00,,---,0.00,VWS V14.01,2013-09-04 08:36:00,
2013-09-04 04:41:00,50.0,24.8,17.72,WNW,303,0.0,0.0,37,0.00,,---,0.00,VWS V14.01,2013-09-04 08:41:00,
2013-09-04 04:46:00,50.2,24.9,17.72,WNW,303,0.0,0.0,37,0.00,,---,0.00,VWS V14.01,2013-09-04 08:46:00,
2013-09-04 04:51:00,50.0,24.8,17.72,WNW,303,0.0,0.0,37,0.00,,---,0.00,VWS V14.01,2013-09-04 08:51:00,
2013-09-04 04:56:00,50.0,24.8,17.72,WNW,303,0.0,0.0,37,0.00,,---,0.00,VWS V14.01,2013-09-04 08:56:00,
2013-09-04 05:01:00,50.0,24.8,17.72,WNW,303,0.0,0.0,37,0.00,,---,0.00,VWS V14.01,2013-09-04 09:01:00,
2013-09-04 05:06:00,50.0,24.8,17.72,WNW,303,0.0,0.0,37,0.00,,---,0.00,VWS V14.01,2013-09-04 09:06:00,
2013-09-04 05:11:00,49.8,25.2,17.72,WNW,303,0.0,0.0,38,0.00,,---,0.00,VWS V14.01,2013-09-04 09:11:00,
2013-09-04 05:16:00,49.8,25.2,17.72,WNW,303,0.0,0.0,38,0.00,,---,0.00,VWS V14.01,2013-09-04 09:16:00,
2013-09-04 05:21:00,49.8,25.2,17.72,WNW,303,0.0,0.0,38,0.00,,---,0.00,VWS V14.01,2013-09-04 09:21:00,
2013-09-04 05:26:00,49.6,25.1,17.72,WNW,303,0.0,0.0,38,0.00,,---,0.00,VWS V14.01,2013-09-04 09:26:00,
2013-09-04 05:31:00,49.5,24.9,17.72,WNW,303,0.0,0.0,38,0.00,,---,0.00,VWS V14.01,2013-09-04 09:31:00,
2013-09-04 05:36:00,49.5,24.9,17.72,WNW,303,0.0,0.0,38,0.00,,---,0.00,VWS V14.01,2013-09-04 09:36:00,
2013-09-04 05:41:00,49.5,24.9,17.72,WNW,303,0.0,0.0,38,0.00,,---,0.00,VWS V14.01,2013-09-04 09:41:00,
2013-09-04 05:46:00,49.5,24.9,17.72,WNW,303,0.0,0.0,38,0.00,,---,0.00,VWS V14.01,2013-09-04 09:46:00,
2013-09-04 05:51:00,49.3,24.8,17.72,WNW,303,0.0,0.0,38,0.00,,---,0.00,VWS V14.01,2013-09-04 09:51:00,
2013-09-04 05:56:00,49.5,24.9,17.72,WNW,303,0.0,0.0,38,0.00,,---,0.00,VWS V14.01,2013-09-04 09:56:00,
2013-09-04 06:01:00,49.5,24.9,17.72,WNW,303,0.0,0.0,38,0.00,,---,0.00,VWS V14.01,2013-09-04 10:01:00,
2013-09-04 06:06:00,49.3,24.8,17.72,WNW,303,0.0,0.0,38,0.00,,---,0.00,VWS V14.01,2013-09-04 10:06:00,
2013-09-04 06:11:00,49.3,24.8,17.72,WNW,303,0.0,0.0,38,0.00,,---,0.00,VWS V14.01,2013-09-04 10:11:00,
2013-09-04 06:16:00,49.1,24.6,17.72,WNW,303,0.0,0.0,38,0.00,,---,0.00,VWS V14.01,2013-09-04 10:16:00,
2013-09-04 06:21:00,49.1,24.6,17.72,WNW,303,0.0,0.0,38,0.00,,---,0.00,VWS V14.01,2013-09-04 10:21:00,
2013-09-04 06:26:00,49.1,24.6,17.72,WNW,303,0.0,0.0,38,0.00,,---,0.00,VWS V14.01,2013-09-04 10:26:00,
2013-09-04 06:31:00,49.1,24.6,17.72,WNW,303,0.0,0.0,38,0.00,,---,0.00,VWS V14.01,2013-09-04 10:31:00,
2013-09-04 06:36:00,49.1,24.6,17.72,WNW,303,0.0,0.0,38,0.00,,---,0.00,VWS V14.01,2013-09-04 10:36:00,
2013-09-04 06:41:00,49.3,24.8,17.72,WNW,303,0.0,0.0,38,0.00,,---,0.00,VWS V14.01,2013-09-04 10:41:00,
2013-09-04 06:46:00,49.3,24.8,17.72,WNW,303,0.0,0.0,38,0.00,,---,0.00,VWS V14.01,2013-09-04 10:46:00,
2013-09-04 06:51:00,49.1,24.6,17.72,WNW,303,0.0,0.0,38,0.00,,---,0.00,VWS V14.01,2013-09-04 10:51:00,
2013-09-04 06:56:00,48.9,24.5,17.72,WNW,303,0.0,0.0,38,0.00,,---,0.00,VWS V14.01,2013-09-04 10:56:00,
2013-09-04 07:01:00,48.9,24.5,17.72,WNW,303,0.0,0.0,38,0.00,,---,0.00,VWS V14.01,2013-09-04 11:01:00,
2013-09-04 07:06:00,48.9,24.5,17.72,WNW,303,0.0,0.0,38,0.00,,---,0.00,VWS V14.01,2013-09-04 11:06:00,
2013-09-04 07:11:00,48.9,24.5,17.72,WNW,303,0.0,0.0,38,0.00,,---,0.00,VWS V14.01,2013-09-04 11:11:00,
2013-09-04 07:16:00,48.9,24.5,17.72,WNW,303,0.0,0.0,38,0.00,,---,0.00,VWS V14.01,2013-09-04 11:16:00,
2013-09-04 07:21:00,48.7,24.3,17.72,WNW,303,0.0,0.0,38,0.00,,---,0.00,VWS V14.01,2013-09-04 11:21:00,
2013-09-04 07:26:00,48.7,24.3,17.72,WNW,303,0.0,0.0,38,0.00,,---,0.00,VWS V14.01,2013-09-04 11:26:00,
2013-09-04 07:31:00,48.7,24.3,17.72,WNW,303,0.0,0.0,38,0.00,,---,0.00,VWS V14.01,2013-09-04 11:31:00,
2013-09-04 07:36:00,48.7,24.3,17.72,WNW,303,0.0,0.0,38,0.00,,---,0.00,VWS V14.01,2013-09-04 11:36:00,
2013-09-04 07:41:00,48.7,24.3,17.72,WNW,303,0.0,0.0,38,0.00,,---,0.00,VWS V14.01,2013-09-04 11:41:00,
2013-09-04 07:46:00,48.9,24.5,17.72,WNW,303,0.0,0.0,38,0.00,,---,0.00,VWS V14.01,2013-09-04 11:46:00,
2013-09-04 07:51:00,48.9,24.5,17.72,WNW,303,0.0,0.0,38,0.00,,---,0.00,VWS V14.01,2013-09-04 11:51:00,
2013-09-04 07:56:00,49.1,24.6,17.72,WNW,303,0.0,0.0,38,0.00,,---,0.00,VWS V14.01,2013-09-04 11:56:00,
2013-09-04 08:01:00,49.3,24.8,17.72,WNW,303,0.0,0.0,38,0.00,,---,0.00,VWS V14.01,2013-09-04 12:01:00,
2013-09-04 08:06:00,49.5,24.9,17.72,WNW,303,0.0,0.0,38,0.00,,---,0.00,VWS V14.01,2013-09-04 12:06:00,
2013-09-04 08:11:00,49.6,25.1,17.72,WNW,303,0.0,0.0,38,0.00,,---,0.00,VWS V14.01,2013-09-04 12:11:00,
2013-09-04 08:16:00,50.0,24.8,17.72,WNW,303,0.0,0.0,37,0.00,,---,0.00,VWS V14.01,2013-09-04 12:16:00,
2013-09-04 08:21:00,50.4,25.1,17.72,WNW,303,0.0,0.0,37,0.00,,---,0.00,VWS V14.01,2013-09-04 12:21:00,
2013-09-04 08:26:00,50.7,25.4,17.72,WNW,303,0.0,0.0,37,0.00,,---,0.00,VWS V14.01,2013-09-04 12:26:00,
2013-09-04 08:31:00,51.1,25.7,17.72,WNW,303,0.0,0.0,37,0.00,,---,0.00,VWS V14.01,2013-09-04 12:31:00,
2013-09-04 08:36:00,51.6,26.2,17.72,WNW,303,0.0,0.0,37,0.00,,---,0.00,VWS V14.01,2013-09-04 12:36:00,
2013-09-04 08:41:00,51.8,26.4,17.72,WNW,303,0.0,0.0,37,0.00,,---,0.00,VWS V14.01,2013-09-04 12:41:00,
2013-09-04 08:46:00,52.2,26.7,17.72,WNW,303,0.0,0.0,37,0.00,,---,0.00,VWS V14.01,2013-09-04 12:46:00,
2013-09-04 08:51:00,52.7,27.2,17.72,WNW,303,0.0,0.0,37,0.00,,---,0.00,VWS V14.01,2013-09-04 12:51:00,
2013-09-04 08:56:00,53.1,27.5,17.72,WNW,303,0.0,0.0,37,0.00,,---,0.00,VWS V14.01,2013-09-04 12:56:00,
2013-09-04 09:01:00,53.2,27.7,17.72,WNW,303,0.0,0.0,37,0.00,,---,0.00,VWS V14.01,2013-09-04 13:01:00,
2013-09-04 09:06:00,53.6,27.3,17.72,WNW,303,0.0,0.0,36,0.00,,---,0.00,VWS V14.01,2013-09-04 13:06:00,
2013-09-04 09:11:00,53.8,28.1,17.72,WNW,303,0.0,0.0,37,0.00,,---,0.00,VWS V14.01,2013-09-04 13:11:00,
2013-09-04 09:16:00,54.1,28.5,17.72,WNW,303,0.0,0.0,37,0.00,,---,0.00,VWS V14.01,2013-09-04 13:16:00,
2013-09-04 09:21:00,54.3,28.6,17.72,WNW,303,0.0,0.0,37,0.00,,---,0.00,VWS V14.01,2013-09-04 13:21:00,
2013-09-04 09:26:00,54.5,28.8,17.72,WNW,303,0.0,0.0,37,0.00,,---,0.00,VWS V14.01,2013-09-04 13:26:00,
2013-09-04 09:31:00,54.9,29.1,17.72,WNW,303,0.0,0.0,37,0.00,,---,0.00,VWS V14.01,2013-09-04 13:31:00,
2013-09-04 09:36:00,55.0,29.3,17.72,WNW,303,0.0,0.0,37,0.00,,---,0.00,VWS V14.01,2013-09-04 13:36:00,
2013-09-04 09:41:00,55.6,29.1,17.72,WNW,303,0.0,0.0,36,0.00,,---,0.00,VWS V14.01,2013-09-04 13:41:00,
2013-09-04 09:46:00,55.8,29.2,17.72,NW,311,0.0,0.0,36,0.00,,---,0.00,VWS V14.01,2013-09-04 13:46:00,
2013-09-04 09:51:00,55.6,29.1,17.72,North,357,0.0,0.0,36,0.00,,---,0.00,VWS V14.01,2013-09-04 13:51:00,
2013-09-04 09:56:00,55.9,29.4,17.72,North,357,0.0,0.0,36,0.00,,---,0.00,VWS V14.01,2013-09-04 13:56:00,
2013-09-04 10:01:00,55.9,29.4,17.72,SSW,194,0.0,0.0,36,0.00,,---,0.00,VWS V14.01,2013-09-04 14:01:00,
2013-09-04 10:06:00,56.3,29.7,17.72,West,274,0.0,0.0,36,0.00,,---,0.00,VWS V14.01,2013-09-04 14:06:00,
2013-09-04 10:11:00,56.8,30.2,17.72,West,274,0.0,0.0,36,0.00,,---,0.00,VWS V14.01,2013-09-04 14:11:00,
2013-09-04 10:16:00,57.2,29.8,17.72,West,274,0.0,0.0,35,0.00,,---,0.00,VWS V14.01,2013-09-04 14:16:00,
2013-09-04 10:21:00,57.6,30.1,17.72,NNE,27,0.0,0.0,35,0.00,,---,0.00,VWS V14.01,2013-09-04 14:21:00,
2013-09-04 10:26:00,57.6,30.1,17.72,SE,146,0.0,0.0,35,0.00,,---,0.00,VWS V14.01,2013-09-04 14:26:00,
2013-09-04 10:31:00,58.1,30.6,17.72,SE,146,0.0,0.0,35,0.00,,---,0.00,VWS V14.01,2013-09-04 14:31:00,
2013-09-04 10:36:00,58.6,31.1,17.72,SSE,150,0.0,0.0,35,0.00,,---,0.00,VWS V14.01,2013-09-04 14:36:00,
2013-09-04 10:41:00,59.2,31.6,17.72,North,10,0.0,0.0,35,0.00,,---,0.00,VWS V14.01,2013-09-04 14:41:00,
2013-09-04 10:46:00,59.4,31.7,17.72,North,11,0.0,0.0,35,0.00,,---,0.00,VWS V14.01,2013-09-04 14:46:00,
2013-09-04 10:51:00,59.2,31.6,17.72,North,7,0.0,0.0,35,0.00,,---,0.00,VWS V14.01,2013-09-04 14:51:00,
2013-09-04 10:56:00,59.4,31.7,17.72,North,357,0.0,0.0,35,0.00,,---,0.00,VWS V14.01,2013-09-04 14:56:00,
2013-09-04 11:01:00,59.5,31.9,17.72,North,357,0.0,0.0,35,0.00,,---,0.00,VWS V14.01,2013-09-04 15:01:00,
2013-09-04 11:06:00,59.7,32.0,17.72,NNW,342,0.0,0.0,35,0.00,,---,0.00,VWS V14.01,2013-09-04 15:06:00,
2013-09-04 11:11:00,60.3,32.5,17.72,West,281,0.0,0.0,35,0.00,,---,0.31,VWS V14.01,2013-09-04 15:11:00,
2013-09-04 11:16:00,60.3,32.5,17.72,WSW,247,3.1,3.6,35,0.00,,---,0.00,VWS V14.01,2013-09-04 15:16:00,
2013-09-04 11:21:00,60.4,32.7,17.72,WNW,298,0.0,0.0,35,0.00,,---,0.00,VWS V14.01,2013-09-04 15:21:00,
2013-09-04 11:26:00,60.6,32.1,17.72,NNE,30,0.0,0.0,34,0.00,,---,0.00,VWS V14.01,2013-09-04 15:26:00,
2013-09-04 11:31:00,61.0,32.4,17.72,North,11,0.0,0.0,34,0.00,,---,0.00,VWS V14.01,2013-09-04 15:31:00,
2013-09-04 11:35:00,61.0,32.4,17.72,NNE,16,0.0,4.0,34,0.00,,---,0.00,VWS V14.01,2013-09-04 15:35:00,
2013-09-04 11:40:00,61.3,32.8,17.72,West,280,0.0,0.0,34,0.00,,---,0.00,VWS V14.01,2013-09-04 15:40:00,
2013-09-04 11:45:00,61.7,33.1,17.72,NW,304,0.0,0.0,34,0.00,,---,0.00,VWS V14.01,2013-09-04 15:45:00,
2013-09-04 11:50:00,62.1,33.4,17.72,North,357,0.0,0.0,34,0.00,,---,0.00,VWS V14.01,2013-09-04 15:50:00,
2013-09-04 11:55:00,62.4,33.7,17.72,WNW,303,0.0,0.0,34,0.00,,---,0.00,VWS V14.01,2013-09-04 15:55:00,
2013-09-04 12:00:00,62.8,34.0,17.72,North,4,0.0,0.0,34,0.00,,---,0.00,VWS V14.01,2013-09-04 16:00:00,
2013-09-04 12:05:00,63.3,34.5,17.72,NNW,338,0.0,0.0,34,0.00,,---,0.31,VWS V14.01,2013-09-04 16:05:00,
2013-09-04 12:10:00,63.5,34.7,17.72,North,1,0.0,0.0,34,0.00,,---,0.00,VWS V14.01,2013-09-04 16:10:00,
2013-09-04 12:15:00,63.9,35.0,17.72,WNW,289,0.0,0.0,34,0.00,,---,0.00,VWS V14.01,2013-09-04 16:15:00,
2013-09-04 12:20:00,64.0,35.1,17.72,NW,318,0.0,0.0,34,0.00,,---,0.00,VWS V14.01,2013-09-04 16:20:00,
2013-09-04 12:25:00,64.4,34.7,17.72,WNW,300,0.0,0.0,33,0.00,,---,0.00,VWS V14.01,2013-09-04 16:25:00,
2013-09-04 12:30:00,64.8,35.0,17.72,NW,313,0.0,0.0,33,0.00,,---,0.00,VWS V14.01,2013-09-04 16:30:00,
2013-09-04 12:35:00,65.1,35.3,17.72,NNE,19,0.0,2.2,33,0.00,,---,0.00,VWS V14.01,2013-09-04 16:35:00,
2013-09-04 12:40:00,65.1,35.3,17.72,NE,34,0.0,0.0,33,0.00,,---,0.00,VWS V14.01,2013-09-04 16:40:00,
2013-09-04 12:45:00,65.5,35.6,17.72,NNE,22,0.0,2.2,33,0.00,,---,0.00,VWS V14.01,2013-09-04 16:45:00,
2013-09-04 12:50:00,65.7,35.8,17.72,NNE,26,0.0,0.0,33,0.00,,---,0.00,VWS V14.01,2013-09-04 16:50:00,
2013-09-04 12:55:00,66.2,36.3,17.72,NNE,26,0.0,0.0,33,0.00,,---,0.00,VWS V14.01,2013-09-04 16:55:00,
2013-09-04 13:00:00,66.4,36.4,17.72,NNE,26,0.0,0.0,33,0.00,,---,0.00,VWS V14.01,2013-09-04 17:00:00,
2013-09-04 13:05:00,66.7,36.8,17.72,NNE,24,0.0,0.0,33,0.00,,---,0.00,VWS V14.01,2013-09-04 17:05:00,
2013-09-04 13:10:00,67.3,37.2,17.72,WSW,244,0.0,0.0,33,0.00,,---,0.00,VWS V14.01,2013-09-04 17:10:00,
2013-09-04 13:15:00,67.6,37.5,17.72,NW,312,0.0,0.0,33,0.00,,---,0.00,VWS V14.01,2013-09-04 17:15:00,
2013-09-04 13:20:00,68.0,37.1,17.72,NNW,336,0.0,0.0,32,0.00,,---,0.00,VWS V14.01,2013-09-04 17:20:00,
2013-09-04 13:25:00,68.4,37.4,17.72,WNW,294,0.0,0.0,32,0.00,,---,0.00,VWS V14.01,2013-09-04 17:25:00,
2013-09-04 13:30:00,68.7,37.7,17.72,North,0,0.0,0.0,32,0.00,,---,0.00,VWS V14.01,2013-09-04 17:30:00,
2013-09-04 13:35:00,69.1,38.0,17.72,NNE,18,0.0,0.0,32,0.00,,---,0.00,VWS V14.01,2013-09-04 17:35:00,
2013-09-04 13:40:00,69.6,38.5,17.72,NNE,19,0.0,0.0,32,0.00,,---,0.00,VWS V14.01,2013-09-04 17:40:00,
2013-09-04 13:45:00,69.4,38.3,17.72,NNE,19,0.0,0.0,32,0.00,,---,0.00,VWS V14.01,2013-09-04 17:45:00,
2013-09-04 13:50:00,69.8,38.6,17.72,SW,232,0.0,0.0,32,0.00,,---,0.00,VWS V14.01,2013-09-04 17:50:00,
2013-09-04 13:55:00,70.2,39.0,17.72,West,275,0.0,0.0,32,0.00,,---,0.00,VWS V14.01,2013-09-04 17:55:00,
2013-09-04 14:00:00,70.7,39.4,17.72,NNW,342,0.0,0.0,32,0.00,,---,0.00,VWS V14.01,2013-09-04 18:00:00,
2013-09-04 14:05:00,71.1,39.7,17.72,NW,318,0.0,0.0,32,0.00,,---,0.00,VWS V14.01,2013-09-04 18:05:00,
2013-09-04 14:10:00,71.6,40.2,17.72,WSW,256,0.0,0.0,32,0.00,,---,0.00,VWS V14.01,2013-09-04 18:10:00,
2013-09-04 14:15:00,71.8,40.4,17.72,West,268,0.0,0.0,32,0.00,,---,0.00,VWS V14.01,2013-09-04 18:15:00,
2013-09-04 14:20:00,72.1,40.7,17.72,North,353,0.0,0.0,32,0.00,,---,0.00,VWS V14.01,2013-09-04 18:20:00,
2013-09-04 14:25:00,73.2,41.6,17.72,NNW,340,0.0,0.0,32,0.00,,---,0.00,VWS V14.01,2013-09-04 18:25:00,
2013-09-04 14:30:00,73.2,41.6,17.72,NE,41,0.0,0.0,32,0.00,,---,0.00,VWS V14.01,2013-09-04 18:30:00,
2013-09-04 14:35:00,73.4,41.0,17.72,West,275,0.0,0.0,31,0.00,,---,0.00,VWS V14.01,2013-09-04 18:35:00,
2013-09-04 14:40:00,74.5,41.9,17.72,WNW,294,0.0,0.0,31,0.00,,---,0.00,VWS V14.01,2013-09-04 18:40:00,
2013-09-04 14:45:00,74.8,42.2,17.72,WNW,302,0.0,0.0,31,0.00,,---,0.00,VWS V14.01,2013-09-04 18:45:00,
2013-09-04 14:50:00,74.8,42.2,17.72,NNW,343,0.0,0.0,31,0.00,,---,0.00,VWS V14.01,2013-09-04 18:50:00,
2013-09-04 14:55:00,74.8,42.2,17.72,WSW,242,0.0,0.0,31,0.00,,---,0.00,VWS V14.01,2013-09-04 18:55:00,
2013-09-04 15:00:00,75.9,43.1,17.72,NW,305,0.0,0.0,31,0.00,,---,0.00,VWS V14.01,2013-09-04 19:00:00,
2013-09-04 15:05:00,75.7,43.0,17.72,WNW,303,0.0,0.0,31,0.00,,---,0.00,VWS V14.01,2013-09-04 19:05:00,
2013-09-04 15:10:00,75.7,43.0,17.72,NNE,32,0.0,0.0,31,0.00,,---,0.00,VWS V14.01,2013-09-04 19:10:00,
2013-09-04 15:15:00,75.9,43.1,17.72,NW,316,0.0,0.0,31,0.00,,---,0.00,VWS V14.01,2013-09-04 19:15:00,
2013-09-04 15:20:00,77.0,43.2,17.72,WNW,299,2.2,4.9,30,0.00,,---,0.00,VWS V14.01,2013-09-04 19:20:00,
2013-09-04 15:25:00,76.6,43.8,17.72,WNW,301,0.0,3.1,31,0.00,,---,0.00,VWS V14.01,2013-09-04 19:25:00,
2013-09-04 15:30:00,76.6,43.8,17.72,SW,214,0.0,0.0,31,0.00,,---,0.00,VWS V14.01,2013-09-04 19:30:00,
2013-09-04 15:35:00,77.5,43.7,17.72,NE,36,0.0,0.0,30,0.00,,---,0.00,VWS V14.01,2013-09-04 19:35:00,
2013-09-04 15:40:00,77.0,43.2,17.72,WNW,291,0.0,0.0,30,0.00,,---,0.00,VWS V14.01,2013-09-04 19:40:00,
2013-09-04 15:45:00,76.3,43.5,17.72,WSW,252,3.1,3.1,31,0.00,,---,0.00,VWS V14.01,2013-09-04 19:45:00,
2013-09-04 15:50:00,76.1,43.3,17.72,North,8,0.0,0.0,31,0.00,,---,0.00,VWS V14.01,2013-09-04 19:50:00,
2013-09-04 15:55:00,75.7,43.0,17.72,NW,326,0.0,0.0,31,0.00,,---,0.00,VWS V14.01,2013-09-04 19:55:00,
2013-09-04 16:00:00,75.4,42.7,17.72,NE,41,0.0,0.0,31,0.00,,---,0.00,VWS V14.01,2013-09-04 20:00:00,
2013-09-04 16:05:00,75.4,42.7,17.72,West,272,0.0,0.0,31,0.00,,---,0.00,VWS V14.01,2013-09-04 20:05:00,
2013-09-04 16:10:00,75.4,42.7,17.72,NE,45,3.1,5.8,31,0.00,,---,0.00,VWS V14.01,2013-09-04 20:10:00,
2013-09-04 16:15:00,75.2,42.5,17.72,NNW,339,0.0,0.0,31,0.00,,---,0.00,VWS V14.01,2013-09-04 20:15:00,
2013-09-04 16:20:00,75.4,42.7,17.72,NNE,20,0.0,0.0,31,0.00,,---,0.00,VWS V14.01,2013-09-04 20:20:00,
2013-09-04 16:25:00,74.8,42.2,17.72,NE,56,0.0,0.0,31,0.00,,---,0.00,VWS V14.01,2013-09-04 20:25:00,
2013-09-04 16:30:00,75.4,42.7,17.72,WNW,295,0.0,0.0,31,0.00,,---,0.00,VWS V14.01,2013-09-04 20:30:00,
2013-09-04 16:35:00,76.5,43.6,17.72,NW,318,0.0,0.0,31,0.00,,---,0.00,VWS V14.01,2013-09-04 20:35:00,
2013-09-04 16:40:00,77.4,43.5,17.72,WNW,293,0.0,3.1,30,0.00,,---,0.00,VWS V14.01,2013-09-04 20:40:00,
2013-09-04 16:45:00,76.3,43.5,17.72,NNE,19,2.2,3.1,31,0.00,,---,0.00,VWS V14.01,2013-09-04 20:45:00,
2013-09-04 16:50:00,77.0,43.2,17.72,NNE,18,0.0,0.0,30,0.00,,---,0.00,VWS V14.01,2013-09-04 20:50:00,
2013-09-04 16:55:00,83.5,47.9,17.72,SW,224,0.0,0.0,29,0.00,,---,0.00,VWS V14.01,2013-09-04 20:55:00,
2013-09-04 17:00:00,88.2,51.0,17.72,West,271,0.0,0.0,28,0.00,,---,0.00,VWS V14.01,2013-09-04 21:00:00,
2013-09-04 17:05:00,91.6,52.9,17.72,NW,307,2.7,3.1,27,0.00,,---,0.00,VWS V14.01,2013-09-04 21:05:00,
2013-09-04 17:10:00,90.0,52.5,17.72,WSW,245,2.7,5.4,28,0.00,,---,0.00,VWS V14.01,2013-09-04 21:10:00,
2013-09-04 17:15:00,82.0,47.6,17.72,NNW,330,2.7,2.7,30,0.00,,---,0.00,VWS V14.01,2013-09-04 21:15:00,
2013-09-04 17:20:00,76.8,43.9,17.72,South,185,0.0,0.0,31,0.00,,---,0.00,VWS V14.01,2013-09-04 21:20:00,
2013-09-04 17:25:00,73.4,41.0,17.72,NNE,16,0.0,0.0,31,0.00,,---,0.00,VWS V14.01,2013-09-04 21:25:00,
2013-09-04 17:30:00,72.1,40.7,17.72,NW,304,0.0,0.0,32,0.00,,---,0.00,VWS V14.01,2013-09-04 21:30:00,
2013-09-04 17:35:00,71.2,39.9,17.72,WNW,287,0.0,0.0,32,0.00,,---,0.00,VWS V14.01,2013-09-04 21:35:00,
2013-09-04 17:40:00,70.7,39.4,17.72,ENE,60,0.0,3.6,32,0.00,,---,0.00,VWS V14.01,2013-09-04 21:40:00,
2013-09-04 17:45:00,70.3,39.1,17.72,North,7,0.0,0.0,32,0.00,,---,0.00,VWS V14.01,2013-09-04 21:45:00,
2013-09-04 17:50:00,69.8,38.6,17.72,NW,311,0.0,0.0,32,0.00,,---,0.00,VWS V14.01,2013-09-04 21:50:00,
2013-09-04 17:55:00,69.6,38.5,17.72,NNW,344,0.0,0.0,32,0.00,,---,0.00,VWS V14.01,2013-09-04 21:55:00,
2013-09-04 18:00:00,69.6,38.5,17.72,South,183,0.0,3.1,32,0.00,,---,0.00,VWS V14.01,2013-09-04 22:00:00,
2013-09-04 18:05:00,69.4,38.3,17.72,West,265,4.9,4.9,32,0.00,,---,0.00,VWS V14.01,2013-09-04 22:05:00,
2013-09-04 18:10:00,69.1,38.0,17.72,NNW,332,0.0,2.7,32,0.00,,---,0.00,VWS V14.01,2013-09-04 22:10:00,
2013-09-04 18:15:00,68.9,37.8,17.72,North,350,2.7,4.9,32,0.00,,---,0.00,VWS V14.01,2013-09-04 22:15:00,
2013-09-04 18:20:00,68.7,37.7,17.72,NNE,27,0.0,0.0,32,0.00,,---,0.00,VWS V14.01,2013-09-04 22:20:00,
2013-09-04 18:25:00,68.5,37.5,17.72,ESE,108,0.0,0.0,32,0.00,,---,0.00,VWS V14.01,2013-09-04 22:25:00,
2013-09-04 18:30:00,68.2,37.2,17.72,SSW,213,0.0,0.0,32,0.00,,---,0.00,VWS V14.01,2013-09-04 22:30:00,
2013-09-04 18:35:00,68.0,37.1,17.72,NW,312,0.0,0.0,32,0.00,,---,0.00,VWS V14.01,2013-09-04 22:35:00,
2013-09-04 18:40:00,67.8,37.7,17.72,NNW,331,0.0,0.0,33,0.00,,---,0.00,VWS V14.01,2013-09-04 22:40:00,
2013-09-04 18:45:00,67.6,37.5,17.72,South,184,0.0,2.2,33,0.00,,---,0.00,VWS V14.01,2013-09-04 22:45:00,
2013-09-04 18:50:00,67.3,37.2,17.72,North,353,0.0,0.0,33,0.00,,---,0.00,VWS V14.01,2013-09-04 22:50:00,
2013-09-04 18:55:00,67.1,37.1,17.72,ESE,102,0.0,0.0,33,0.00,,---,0.00,VWS V14.01,2013-09-04 22:55:00,
2013-09-04 19:00:00,66.7,36.8,17.72,WSW,241,0.0,0.0,33,0.00,,---,0.00,VWS V14.01,2013-09-04 23:00:00,
2013-09-04 19:05:00,66.4,36.4,17.72,WSW,241,0.0,0.0,33,0.00,,---,0.00,VWS V14.01,2013-09-04 23:05:00,
2013-09-04 19:10:00,66.2,36.3,17.72,WSW,241,0.0,0.0,33,0.00,,---,0.00,VWS V14.01,2013-09-04 23:10:00,
2013-09-04 19:15:00,65.8,36.0,17.72,NNW,340,0.0,0.0,33,0.00,,---,0.00,VWS V14.01,2013-09-04 23:15:00,
2013-09-04 19:20:00,65.5,35.6,17.72,NNW,340,0.0,0.0,33,0.00,,---,0.00,VWS V14.01,2013-09-04 23:20:00,
2013-09-04 19:25:00,64.9,35.2,17.72,NNW,340,0.0,0.0,33,0.00,,---,0.00,VWS V14.01,2013-09-04 23:25:00,
2013-09-04 19:30:00,64.6,34.8,17.72,North,350,0.0,0.0,33,0.00,,---,0.00,VWS V14.01,2013-09-04 23:30:00,
2013-09-04 19:35:00,64.2,35.3,17.72,North,350,0.0,0.0,34,0.00,,---,0.00,VWS V14.01,2013-09-04 23:35:00,
2013-09-04 19:40:00,63.7,34.8,17.72,North,350,0.0,0.0,34,0.00,,---,0.00,VWS V14.01,2013-09-04 23:40:00,
2013-09-04 19:45:00,63.1,34.3,17.72,North,350,0.0,0.0,34,0.00,,---,0.00,VWS V14.01,2013-09-04 23:45:00,
2013-09-04 19:50:00,62.6,33.9,17.72,North,350,0.0,0.0,34,0.00,,---,0.00,VWS V14.01,2013-09-04 23:50:00,
2013-09-04 19:55:00,62.2,33.5,17.72,North,350,0.0,0.0,34,0.00,,---,0.00,VWS V14.01,2013-09-04 23:55:00,
2013-09-04 20:00:00,61.7,33.1,17.72,North,350,0.0,0.0,34,0.00,,---,0.00,VWS V14.01,2013-09-05 00:00:00,
2013-09-04 20:05:00,61.3,32.8,17.72,North,350,0.0,0.0,34,0.00,,---,0.00,VWS V14.01,2013-09-05 00:05:00,
2013-09-04 20:10:00,61.0,32.4,17.72,North,350,0.0,0.0,34,0.00,,---,0.00,VWS V14.01,2013-09-05 00:10:00,
2013-09-04 20:15:00,60.6,32.1,17.72,North,350,0.0,0.0,34,0.00,,---,0.00,VWS V14.01,2013-09-05 00:15:00,
2013-09-04 20:20:00,60.4,32.0,17.72,North,350,0.0,0.0,34,0.00,,---,0.00,VWS V14.01,2013-09-05 00:20:00,
2013-09-04 20:25:00,60.3,31.8,17.72,North,350,0.0,0.0,34,0.00,,---,0.00,VWS V14.01,2013-09-05 00:25:00,
2013-09-04 20:30:00,60.1,31.6,17.72,North,350,0.0,0.0,34,0.00,,---,0.00,VWS V14.01,2013-09-05 00:30:00,
2013-09-04 20:35:00,59.9,31.5,17.72,North,350,0.0,0.0,34,0.00,,---,0.00,VWS V14.01,2013-09-05 00:35:00,
2013-09-04 20:40:00,59.9,31.5,17.72,North,350,0.0,0.0,34,0.00,,---,0.00,VWS V14.01,2013-09-05 00:40:00,
2013-09-04 20:45:00,59.7,32.0,17.72,North,350,0.0,0.0,35,0.00,,---,0.00,VWS V14.01,2013-09-05 00:45:00,
2013-09-04 20:50:00,59.7,32.0,17.72,North,350,0.0,0.0,35,0.00,,---,0.00,VWS V14.01,2013-09-05 00:50:00,
2013-09-04 20:55:00,59.7,32.0,17.72,North,350,0.0,0.0,35,0.00,,---,0.00,VWS V14.01,2013-09-05 00:55:00,
2013-09-04 21:00:00,59.5,31.9,17.72,North,350,0.0,0.0,35,0.00,,---,0.00,VWS V14.01,2013-09-05 01:00:00,
2013-09-04 21:05:00,59.4,31.7,17.72,North,350,0.0,0.0,35,0.00,,---,0.00,VWS V14.01,2013-09-05 01:05:00,
2013-09-04 21:10:00,59.4,31.7,17.72,North,350,0.0,0.0,35,0.00,,---,0.00,VWS V14.01,2013-09-05 01:10:00,
2013-09-04 21:15:00,59.5,31.9,17.72,North,350,0.0,0.0,35,0.00,,---,0.00,VWS V14.01,2013-09-05 01:15:00,
2013-09-04 21:20:00,59.7,32.0,17.72,NW,314,0.0,0.0,35,0.00,,---,0.00,VWS V14.01,2013-09-05 01:20:00,
2013-09-04 21:25:00,59.7,32.0,17.72,NW,314,0.0,0.0,35,0.00,,---,0.00,VWS V14.01,2013-09-05 01:25:00,
2013-09-04 21:30:00,59.7,32.0,17.72,NW,314,0.0,0.0,35,0.00,,---,0.00,VWS V14.01,2013-09-05 01:30:00,
2013-09-04 21:35:00,59.5,31.9,17.72,NW,314,0.0,0.0,35,0.00,,---,0.00,VWS V14.01,2013-09-05 01:35:00,
2013-09-04 21:40:00,59.7,32.0,17.72,NNW,338,0.0,0.0,35,0.00,,---,0.00,VWS V14.01,2013-09-05 01:40:00,
2013-09-04 21:45:00,59.7,32.0,17.72,NNW,338,0.0,0.0,35,0.00,,---,0.00,VWS V14.01,2013-09-05 01:45:00,
2013-09-04 21:50:00,59.5,31.9,17.72,NNW,338,0.0,0.0,35,0.00,,---,0.00,VWS V14.01,2013-09-05 01:50:00,
2013-09-04 21:55:00,59.4,31.7,17.72,NNW,338,0.0,0.0,35,0.00,,---,0.00,VWS V14.01,2013-09-05 01:55:00,
2013-09-04 22:00:00,59.4,31.7,17.72,NNW,338,0.0,0.0,35,0.00,,---,0.00,VWS V14.01,2013-09-05 02:00:00,
2013-09-04 22:05:00,59.2,31.6,17.72,NNW,338,0.0,0.0,35,0.00,,---,0.00,VWS V14.01,2013-09-05 02:05:00,
2013-09-04 22:10:00,59.2,31.6,17.72,NNW,338,0.0,0.0,35,0.00,,---,0.00,VWS V14.01,2013-09-05 02:10:00,
2013-09-04 22:15:00,59.0,31.4,17.72,NNW,338,0.0,0.0,35,0.00,,---,0.00,VWS V14.01,2013-09-05 02:15:00,
2013-09-04 22:20:00,58.8,31.2,17.72,NNW,338,0.0,0.0,35,0.00,,---,0.00,VWS V14.01,2013-09-05 02:20:00,
2013-09-04 22:25:00,58.6,31.1,17.72,NNW,338,0.0,0.0,35,0.00,,---,0.00,VWS V14.01,2013-09-05 02:25:00,
2013-09-04 22:30:00,58.6,31.1,17.72,NNW,338,0.0,0.0,35,0.00,,---,0.00,VWS V14.01,2013-09-05 02:30:00,
2013-09-04 22:35:00,58.5,30.9,17.72,NNW,338,0.0,0.0,35,0.00,,---,0.00,VWS V14.01,2013-09-05 02:35:00,
2013-09-04 22:40:00,58.5,30.9,17.72,NNW,338,0.0,0.0,35,0.00,,---,0.00,VWS V14.01,2013-09-05 02:40:00,
2013-09-04 22:45:00,58.5,30.9,17.72,NNW,338,0.0,0.0,35,0.00,,---,0.00,VWS V14.01,2013-09-05 02:45:00,
2013-09-04 22:50:00,58.5,30.9,17.72,NNW,338,0.0,0.0,35,0.00,,---,0.00,VWS V14.01,2013-09-05 02:50:00,
2013-09-04 22:55:00,58.5,30.9,17.72,NNW,338,0.0,0.0,35,0.00,,---,0.00,VWS V14.01,2013-09-05 02:55:00,
2013-09-04 23:00:00,58.5,30.9,17.72,NNW,338,0.0,0.0,35,0.00,,---,0.00,VWS V14.01,2013-09-05 03:00:00,
2013-09-04 23:05:00,58.5,30.9,17.72,NNW,338,0.0,0.0,35,0.00,,---,0.00,VWS V14.01,2013-09-05 03:05:00,
2013-09-04 23:10:00,58.5,30.9,17.72,NNW,338,0.0,0.0,35,0.00,,---,0.00,VWS V14.01,2013-09-05 03:10:00,
2013-09-04 23:15:00,58.5,30.9,17.72,NNW,338,0.0,0.0,35,0.00,,---,0.00,VWS V14.01,2013-09-05 03:15:00,
2013-09-04 23:20:00,58.3,30.8,17.72,NNW,338,0.0,0.0,35,0.00,,---,0.00,VWS V14.01,2013-09-05 03:20:00,
2013-09-04 23:25:00,58.3,30.8,17.72,NNW,338,0.0,0.0,35,0.00,,---,0.00,VWS V14.01,2013-09-05 03:25:00,
2013-09-04 23:30:00,58.1,30.6,17.72,NNW,338,0.0,0.0,35,0.00,,---,0.00,VWS V14.01,2013-09-05 03:30:00,
2013-09-04 23:35:00,58.1,30.6,17.72,NNW,338,0.0,0.0,35,0.00,,---,0.00,VWS V14.01,2013-09-05 03:35:00,
2013-09-04 23:40:00,57.9,30.5,17.72,NNW,338,0.0,0.0,35,0.00,,---,0.00,VWS V14.01,2013-09-05 03:40:00,
2013-09-04 23:45:00,57.9,30.5,17.72,NNW,338,0.0,0.0,35,0.00,,---,0.00,VWS V14.01,2013-09-05 03:45:00,
2013-09-04 23:50:00,57.9,30.5,17.72,NNW,338,0.0,0.0,35,0.00,,---,0.00,VWS V14.01,2013-09-05 03:50:00,
2013-09-04 23:55:00,58.1,30.6,17.72,NNW,338,0.0,0.0,35,0.00,,---,0.00,VWS V14.01,2013-09-05 03:55:00,